Aviation Digital Data Service (ADDS)

Output produced by METARs form (1848 UTC 30 August 2016)
found at http://aviationweather.gov/adds/metars/
 
KHUL 301731Z 3018/3118 24007KT P6SM BKN090 
     FM302200 VRB03KT P6SM BKN200 
     FM311600 23007KT P6SM BKN035